sensor_id;sensor_type;location;lat;lon;timestamp;temperature;humidity
44435;DHT22;30138;20.964;105.830;2022-08-18T00:01:02;32.10;99.90
44435;DHT22;30138;20.964;105.830;2022-08-18T00:06:10;32.10;99.90
44435;DHT22;30138;20.964;105.830;2022-08-18T00:11:18;32.10;99.90
44435;DHT22;30138;20.964;105.830;2022-08-18T00:16:27;32.10;99.90
44435;DHT22;30138;20.964;105.830;2022-08-18T00:21:34;32.10;99.90
44435;DHT22;30138;20.964;105.830;2022-08-18T00:26:43;32.00;99.90
44435;DHT22;30138;20.964;105.830;2022-08-18T00:31:53;32.00;99.90
44435;DHT22;30138;20.964;105.830;2022-08-18T00:37:00;32.10;99.90
44435;DHT22;30138;20.964;105.830;2022-08-18T00:42:15;32.00;99.90
44435;DHT22;30138;20.964;105.830;2022-08-18T00:47:27;32.00;99.90
44435;DHT22;30138;20.964;105.830;2022-08-18T00:52:34;32.00;99.90
44435;DHT22;30138;20.964;105.830;2022-08-18T00:57:43;32.00;99.90
44435;DHT22;30138;20.964;105.830;2022-08-18T01:02:56;32.10;99.90
44435;DHT22;30138;20.964;105.830;2022-08-18T01:08:05;32.10;99.90
44435;DHT22;30138;20.964;105.830;2022-08-18T01:13:16;32.10;99.90
44435;DHT22;30138;20.964;105.830;2022-08-18T01:18:25;32.20;99.90
44435;DHT22;30138;20.964;105.830;2022-08-18T01:23:52;32.20;99.90
44435;DHT22;30138;20.964;105.830;2022-08-18T01:29:05;32.20;99.90
44435;DHT22;30138;20.964;105.830;2022-08-18T01:34:14;32.20;99.90
44435;DHT22;30138;20.964;105.830;2022-08-18T01:39:25;32.20;99.90
44435;DHT22;30138;20.964;105.830;2022-08-18T01:44:32;32.20;99.90
44435;DHT22;30138;20.964;105.830;2022-08-18T01:49:40;32.20;99.90
44435;DHT22;30138;20.964;105.830;2022-08-18T01:54:50;32.20;99.90
44435;DHT22;30138;20.964;105.830;2022-08-18T01:59:58;32.30;99.90
44435;DHT22;30138;20.964;105.830;2022-08-18T02:05:17;32.30;99.90
44435;DHT22;30138;20.964;105.830;2022-08-18T02:10:28;32.30;99.90
44435;DHT22;30138;20.964;105.830;2022-08-18T02:15:36;32.30;99.90
44435;DHT22;30138;20.964;105.830;2022-08-18T02:20:44;32.30;99.90
44435;DHT22;30138;20.964;105.830;2022-08-18T02:25:53;32.30;99.90
44435;DHT22;30138;20.964;105.830;2022-08-18T02:31:05;32.30;99.90
44435;DHT22;30138;20.964;105.830;2022-08-18T02:36:12;32.40;99.90
44435;DHT22;30138;20.964;105.830;2022-08-18T02:41:22;32.40;99.90
44435;DHT22;30138;20.964;105.830;2022-08-18T02:46:30;32.40;99.90
44435;DHT22;30138;20.964;105.830;2022-08-18T02:51:37;32.40;99.90
44435;DHT22;30138;20.964;105.830;2022-08-18T02:56:46;32.40;99.90
44435;DHT22;30138;20.964;105.830;2022-08-18T03:01:54;32.50;99.90
44435;DHT22;30138;20.964;105.830;2022-08-18T03:07:04;32.50;99.90
44435;DHT22;30138;20.964;105.830;2022-08-18T03:12:14;32.50;99.90
44435;DHT22;30138;20.964;105.830;2022-08-18T03:17:21;32.50;99.90
44435;DHT22;30138;20.964;105.830;2022-08-18T03:22:29;32.50;99.90
44435;DHT22;30138;20.964;105.830;2022-08-18T03:27:38;32.60;99.90
44435;DHT22;30138;20.964;105.830;2022-08-18T03:32:45;32.60;99.90
44435;DHT22;30138;20.964;105.830;2022-08-18T03:37:52;32.60;99.90
44435;DHT22;30138;20.964;105.830;2022-08-18T03:43:05;32.60;99.90
44435;DHT22;30138;20.964;105.830;2022-08-18T03:48:12;32.60;99.90
44435;DHT22;30138;20.964;105.830;2022-08-18T03:53:19;32.60;99.90
44435;DHT22;30138;20.964;105.830;2022-08-18T03:58:28;32.60;99.90
44435;DHT22;30138;20.964;105.830;2022-08-18T04:03:35;32.60;99.90
44435;DHT22;30138;20.964;105.830;2022-08-18T04:08:42;32.60;99.90
44435;DHT22;30138;20.964;105.830;2022-08-18T04:13:51;32.70;99.90
44435;DHT22;30138;20.964;105.830;2022-08-18T04:18:59;32.70;99.90
44435;DHT22;30138;20.964;105.830;2022-08-18T04:24:08;32.70;99.90
44435;DHT22;30138;20.964;105.830;2022-08-18T04:29:18;32.70;99.90
44435;DHT22;30138;20.964;105.830;2022-08-18T04:34:26;32.70;99.90
44435;DHT22;30138;20.964;105.830;2022-08-18T04:39:33;32.70;99.90
44435;DHT22;30138;20.964;105.830;2022-08-18T04:44:43;32.80;99.90
44435;DHT22;30138;20.964;105.830;2022-08-18T04:49:51;32.80;99.90
44435;DHT22;30138;20.964;105.830;2022-08-18T04:55:00;32.80;99.90
44435;DHT22;30138;20.964;105.830;2022-08-18T05:00:10;32.80;99.90
44435;DHT22;30138;20.964;105.830;2022-08-18T05:05:19;32.80;99.90
44435;DHT22;30138;20.964;105.830;2022-08-18T05:10:26;32.80;99.90
44435;DHT22;30138;20.964;105.830;2022-08-18T05:15:35;32.80;99.90
44435;DHT22;30138;20.964;105.830;2022-08-18T05:20:43;32.90;99.90
44435;DHT22;30138;20.964;105.830;2022-08-18T05:25:55;32.90;99.90
44435;DHT22;30138;20.964;105.830;2022-08-18T05:31:09;32.90;99.90
44435;DHT22;30138;20.964;105.830;2022-08-18T05:36:25;33.00;99.90
44435;DHT22;30138;20.964;105.830;2022-08-18T05:41:41;32.90;99.90
44435;DHT22;30138;20.964;105.830;2022-08-18T05:46:52;33.00;99.90
44435;DHT22;30138;20.964;105.830;2022-08-18T05:52:00;32.90;99.90
44435;DHT22;30138;20.964;105.830;2022-08-18T05:57:11;32.90;99.90
44435;DHT22;30138;20.964;105.830;2022-08-18T06:02:29;32.90;99.90
44435;DHT22;30138;20.964;105.830;2022-08-18T06:07:42;32.90;99.90
44435;DHT22;30138;20.964;105.830;2022-08-18T06:12:53;32.90;99.90
44435;DHT22;30138;20.964;105.830;2022-08-18T06:18:25;33.00;99.90
44435;DHT22;30138;20.964;105.830;2022-08-18T06:23:56;33.00;99.90
44435;DHT22;30138;20.964;105.830;2022-08-18T06:29:15;33.00;99.90
44435;DHT22;30138;20.964;105.830;2022-08-18T06:34:41;32.90;99.90
44435;DHT22;30138;20.964;105.830;2022-08-18T06:40:03;32.90;99.90
44435;DHT22;30138;20.964;105.830;2022-08-18T06:45:11;33.00;99.90
44435;DHT22;30138;20.964;105.830;2022-08-18T06:50:25;33.00;99.90
44435;DHT22;30138;20.964;105.830;2022-08-18T06:55:37;33.10;99.90
44435;DHT22;30138;20.964;105.830;2022-08-18T07:00:54;33.10;99.90
44435;DHT22;30138;20.964;105.830;2022-08-18T07:06:07;33.10;99.90
44435;DHT22;30138;20.964;105.830;2022-08-18T07:11:19;33.10;99.90
44435;DHT22;30138;20.964;105.830;2022-08-18T07:16:32;33.10;99.90
44435;DHT22;30138;20.964;105.830;2022-08-18T07:21:42;33.20;99.90
44435;DHT22;30138;20.964;105.830;2022-08-18T07:27:00;33.20;99.90
44435;DHT22;30138;20.964;105.830;2022-08-18T07:32:14;33.20;99.90
44435;DHT22;30138;20.964;105.830;2022-08-18T07:37:28;33.20;99.90
44435;DHT22;30138;20.964;105.830;2022-08-18T07:42:41;33.20;99.90
44435;DHT22;30138;20.964;105.830;2022-08-18T07:47:56;33.30;99.90
44435;DHT22;30138;20.964;105.830;2022-08-18T07:58:45;33.30;99.90
44435;DHT22;30138;20.964;105.830;2022-08-18T08:04:01;33.30;99.90
44435;DHT22;30138;20.964;105.830;2022-08-18T08:09:30;33.30;99.90
44435;DHT22;30138;20.964;105.830;2022-08-18T08:14:44;33.40;99.90
44435;DHT22;30138;20.964;105.830;2022-08-18T08:20:15;33.40;99.90
44435;DHT22;30138;20.964;105.830;2022-08-18T08:25:33;33.40;99.90
44435;DHT22;30138;20.964;105.830;2022-08-18T08:30:54;33.40;99.90
44435;DHT22;30138;20.964;105.830;2022-08-18T08:36:13;33.40;99.90
44435;DHT22;30138;20.964;105.830;2022-08-18T08:41:30;33.40;99.90
44435;DHT22;30138;20.964;105.830;2022-08-18T08:46:43;33.50;99.90
44435;DHT22;30138;20.964;105.830;2022-08-18T08:51:54;33.50;99.90
44435;DHT22;30138;20.964;105.830;2022-08-18T08:57:06;33.50;99.90
44435;DHT22;30138;20.964;105.830;2022-08-18T09:02:32;33.50;99.90
44435;DHT22;30138;20.964;105.830;2022-08-18T09:14:01;33.50;99.90
44435;DHT22;30138;20.964;105.830;2022-08-18T09:19:41;33.50;99.90
44435;DHT22;30138;20.964;105.830;2022-08-18T09:24:59;33.50;99.90
44435;DHT22;30138;20.964;105.830;2022-08-18T09:36:07;33.50;99.90
44435;DHT22;30138;20.964;105.830;2022-08-18T09:41:31;33.50;99.90
44435;DHT22;30138;20.964;105.830;2022-08-18T09:46:58;33.50;99.90
44435;DHT22;30138;20.964;105.830;2022-08-18T09:58:17;33.50;99.90
44435;DHT22;30138;20.964;105.830;2022-08-18T10:03:27;33.50;99.90
44435;DHT22;30138;20.964;105.830;2022-08-18T10:08:51;33.50;99.90
44435;DHT22;30138;20.964;105.830;2022-08-18T10:14:40;33.50;99.90
44435;DHT22;30138;20.964;105.830;2022-08-18T10:20:24;33.50;99.90
44435;DHT22;30138;20.964;105.830;2022-08-18T10:25:39;33.50;99.90
44435;DHT22;30138;20.964;105.830;2022-08-18T10:31:03;33.40;99.90
44435;DHT22;30138;20.964;105.830;2022-08-18T10:42:03;32.80;80.60
44435;DHT22;30138;20.964;105.830;2022-08-18T10:47:22;32.50;72.00
44435;DHT22;30138;20.964;105.830;2022-08-18T10:52:59;32.10;67.50
44435;DHT22;30138;20.964;105.830;2022-08-18T11:04:03;31.60;63.40
44435;DHT22;30138;20.964;105.830;2022-08-18T11:09:22;31.30;60.60
44435;DHT22;30138;20.964;105.830;2022-08-18T11:20:21;30.80;63.10
44435;DHT22;30138;20.964;105.830;2022-08-18T11:25:36;30.60;60.40
44435;DHT22;30138;20.964;105.830;2022-08-18T11:30:45;30.40;58.60
44435;DHT22;30138;20.964;105.830;2022-08-18T11:35:56;30.30;57.30
44435;DHT22;30138;20.964;105.830;2022-08-18T11:41:17;30.10;56.20
44435;DHT22;30138;20.964;105.830;2022-08-18T11:46:28;29.90;55.50
44435;DHT22;30138;20.964;105.830;2022-08-18T11:51:51;29.80;54.90
44435;DHT22;30138;20.964;105.830;2022-08-18T11:57:37;29.70;54.30
44435;DHT22;30138;20.964;105.830;2022-08-18T12:02:47;29.50;53.70
44435;DHT22;30138;20.964;105.830;2022-08-18T12:07:54;29.40;53.30
44435;DHT22;30138;20.964;105.830;2022-08-18T12:13:03;29.30;52.90
44435;DHT22;30138;20.964;105.830;2022-08-18T12:18:10;29.20;52.60
44435;DHT22;30138;20.964;105.830;2022-08-18T12:23:17;29.00;52.30
44435;DHT22;30138;20.964;105.830;2022-08-18T12:28:26;29.00;54.40
44435;DHT22;30138;20.964;105.830;2022-08-18T12:33:33;28.90;53.20
44435;DHT22;30138;20.964;105.830;2022-08-18T12:38:43;28.80;52.80
44435;DHT22;30138;20.964;105.830;2022-08-18T12:43:52;28.70;51.70
44435;DHT22;30138;20.964;105.830;2022-08-18T12:48:59;28.60;51.40
44435;DHT22;30138;20.964;105.830;2022-08-18T12:54:07;28.50;52.50
44435;DHT22;30138;20.964;105.830;2022-08-18T12:59:15;28.50;51.60
44435;DHT22;30138;20.964;105.830;2022-08-18T13:04:22;28.40;51.10
44435;DHT22;30138;20.964;105.830;2022-08-18T13:09:33;28.30;50.80
44435;DHT22;30138;20.964;105.830;2022-08-18T13:14:42;28.30;50.60
44435;DHT22;30138;20.964;105.830;2022-08-18T13:19:49;28.20;50.30
44435;DHT22;30138;20.964;105.830;2022-08-18T13:24:58;28.20;52.60
44435;DHT22;30138;20.964;105.830;2022-08-18T13:30:10;28.10;51.50
44435;DHT22;30138;20.964;105.830;2022-08-18T13:35:18;28.10;50.70
44435;DHT22;30138;20.964;105.830;2022-08-18T13:40:26;28.00;50.20
44435;DHT22;30138;20.964;105.830;2022-08-18T13:45:34;27.90;50.10
44435;DHT22;30138;20.964;105.830;2022-08-18T13:50:42;27.90;50.00
44435;DHT22;30138;20.964;105.830;2022-08-18T13:55:49;27.90;49.80
44435;DHT22;30138;20.964;105.830;2022-08-18T14:01:00;27.80;49.80
44435;DHT22;30138;20.964;105.830;2022-08-18T14:06:09;27.80;49.60
44435;DHT22;30138;20.964;105.830;2022-08-18T14:11:17;27.70;49.50
44435;DHT22;30138;20.964;105.830;2022-08-18T14:16:26;27.70;49.40
44435;DHT22;30138;20.964;105.830;2022-08-18T14:21:34;27.70;49.40
44435;DHT22;30138;20.964;105.830;2022-08-18T14:27:00;27.60;49.20
44435;DHT22;30138;20.964;105.830;2022-08-18T14:32:10;27.60;51.60
44435;DHT22;30138;20.964;105.830;2022-08-18T14:37:18;27.50;53.00
44435;DHT22;30138;20.964;105.830;2022-08-18T14:42:25;27.50;51.40
44435;DHT22;30138;20.964;105.830;2022-08-18T14:47:35;27.50;50.50
44435;DHT22;30138;20.964;105.830;2022-08-18T14:52:45;27.50;49.90
44435;DHT22;30138;20.964;105.830;2022-08-18T14:57:52;27.40;49.50
44435;DHT22;30138;20.964;105.830;2022-08-18T15:03:01;27.40;49.20
44435;DHT22;30138;20.964;105.830;2022-08-18T15:08:08;27.30;48.90
44435;DHT22;30138;20.964;105.830;2022-08-18T15:13:15;27.30;48.80
44435;DHT22;30138;20.964;105.830;2022-08-18T15:18:25;27.20;48.60
44435;DHT22;30138;20.964;105.830;2022-08-18T15:23:32;27.20;48.50
44435;DHT22;30138;20.964;105.830;2022-08-18T15:28:55;27.10;48.90
44435;DHT22;30138;20.964;105.830;2022-08-18T15:34:05;27.10;51.50
44435;DHT22;30138;20.964;105.830;2022-08-18T15:39:12;27.20;58.60
44435;DHT22;30138;20.964;105.830;2022-08-18T15:44:20;27.20;54.80
44435;DHT22;30138;20.964;105.830;2022-08-18T15:49:29;27.10;52.30
44435;DHT22;30138;20.964;105.830;2022-08-18T15:54:36;27.10;50.80
44435;DHT22;30138;20.964;105.830;2022-08-18T15:59:44;27.00;49.90
44435;DHT22;30138;20.964;105.830;2022-08-18T16:04:52;27.00;49.30
44435;DHT22;30138;20.964;105.830;2022-08-18T16:10:01;27.00;48.90
44435;DHT22;30138;20.964;105.830;2022-08-18T16:15:09;26.90;48.50
44435;DHT22;30138;20.964;105.830;2022-08-18T16:20:19;26.80;48.40
44435;DHT22;30138;20.964;105.830;2022-08-18T16:25:27;26.80;48.20
44435;DHT22;30138;20.964;105.830;2022-08-18T16:30:34;26.80;54.40
44435;DHT22;30138;20.964;105.830;2022-08-18T16:35:43;26.90;61.20
44435;DHT22;30138;20.964;105.830;2022-08-18T16:40:51;27.00;64.70
44435;DHT22;30138;20.964;105.830;2022-08-18T16:45:59;27.00;66.50
44435;DHT22;30138;20.964;105.830;2022-08-18T16:51:12;27.10;67.40
44435;DHT22;30138;20.964;105.830;2022-08-18T16:56:23;27.10;67.70
44435;DHT22;30138;20.964;105.830;2022-08-18T17:01:31;27.10;64.60
44435;DHT22;30138;20.964;105.830;2022-08-18T17:06:56;27.00;58.90
44435;DHT22;30138;20.964;105.830;2022-08-18T17:12:05;27.00;55.80
44435;DHT22;30138;20.964;105.830;2022-08-18T17:17:16;26.90;53.60
44435;DHT22;30138;20.964;105.830;2022-08-18T17:22:25;26.80;52.30
44435;DHT22;30138;20.964;105.830;2022-08-18T17:27:33;26.70;51.10
44435;DHT22;30138;20.964;105.830;2022-08-18T17:32:43;26.70;50.50
44435;DHT22;30138;20.964;105.830;2022-08-18T17:37:55;26.60;49.90
44435;DHT22;30138;20.964;105.830;2022-08-18T17:43:08;26.50;49.50
44435;DHT22;30138;20.964;105.830;2022-08-18T17:48:21;26.40;49.10
44435;DHT22;30138;20.964;105.830;2022-08-18T17:53:33;26.40;48.90
44435;DHT22;30138;20.964;105.830;2022-08-18T17:58:44;26.40;48.80
44435;DHT22;30138;20.964;105.830;2022-08-18T18:03:58;26.30;48.50
44435;DHT22;30138;20.964;105.830;2022-08-18T18:09:08;26.20;48.30
44435;DHT22;30138;20.964;105.830;2022-08-18T18:14:25;26.20;48.20
44435;DHT22;30138;20.964;105.830;2022-08-18T18:19:34;26.10;48.10
44435;DHT22;30138;20.964;105.830;2022-08-18T18:24:51;26.10;48.10
44435;DHT22;30138;20.964;105.830;2022-08-18T18:30:00;26.00;47.80
44435;DHT22;30138;20.964;105.830;2022-08-18T18:35:15;26.00;47.80
44435;DHT22;30138;20.964;105.830;2022-08-18T18:40:37;26.10;53.70
44435;DHT22;30138;20.964;105.830;2022-08-18T18:46:05;26.20;54.60
44435;DHT22;30138;20.964;105.830;2022-08-18T18:51:22;26.30;59.30
44435;DHT22;30138;20.964;105.830;2022-08-18T18:56:39;26.20;55.70
44435;DHT22;30138;20.964;105.830;2022-08-18T19:02:01;26.40;59.80
44435;DHT22;30138;20.964;105.830;2022-08-18T19:07:17;26.30;56.50
44435;DHT22;30138;20.964;105.830;2022-08-18T19:12:31;26.40;60.70
44435;DHT22;30138;20.964;105.830;2022-08-18T19:17:40;26.40;58.50
44435;DHT22;30138;20.964;105.830;2022-08-18T19:22:56;26.40;58.70
44435;DHT22;30138;20.964;105.830;2022-08-18T19:28:13;26.40;60.30
44435;DHT22;30138;20.964;105.830;2022-08-18T19:33:26;26.50;58.90
44435;DHT22;30138;20.964;105.830;2022-08-18T19:38:40;26.50;62.90
44435;DHT22;30138;20.964;105.830;2022-08-18T19:43:57;26.50;57.70
44435;DHT22;30138;20.964;105.830;2022-08-18T19:49:16;26.50;64.00
44435;DHT22;30138;20.964;105.830;2022-08-18T19:54:43;26.50;58.00
44435;DHT22;30138;20.964;105.830;2022-08-18T20:00:17;26.50;62.50
44435;DHT22;30138;20.964;105.830;2022-08-18T20:05:35;26.50;59.60
44435;DHT22;30138;20.964;105.830;2022-08-18T20:17:09;26.50;60.70
44435;DHT22;30138;20.964;105.830;2022-08-18T20:22:31;26.50;59.40
44435;DHT22;30138;20.964;105.830;2022-08-18T20:27:42;26.60;63.30
44435;DHT22;30138;20.964;105.830;2022-08-18T20:33:14;26.50;58.00
44435;DHT22;30138;20.964;105.830;2022-08-18T20:38:29;26.50;63.90
44435;DHT22;30138;20.964;105.830;2022-08-18T20:43:38;26.50;58.80
44435;DHT22;30138;20.964;105.830;2022-08-18T20:49:02;26.50;63.70
44435;DHT22;30138;20.964;105.830;2022-08-18T20:54:27;26.50;59.90
44435;DHT22;30138;20.964;105.830;2022-08-18T20:59:46;26.50;62.80
44435;DHT22;30138;20.964;105.830;2022-08-18T21:04:59;26.50;60.80
44435;DHT22;30138;20.964;105.830;2022-08-18T21:10:12;26.50;62.00
44435;DHT22;30138;20.964;105.830;2022-08-18T21:15:32;26.50;62.30
44435;DHT22;30138;20.964;105.830;2022-08-18T21:20:43;26.50;61.40
44435;DHT22;30138;20.964;105.830;2022-08-18T21:25:53;26.50;64.20
44435;DHT22;30138;20.964;105.830;2022-08-18T21:31:03;26.50;61.00
44435;DHT22;30138;20.964;105.830;2022-08-18T21:36:15;26.50;64.00
44435;DHT22;30138;20.964;105.830;2022-08-18T21:41:27;26.50;60.50
44435;DHT22;30138;20.964;105.830;2022-08-18T21:46:36;26.50;64.60
44435;DHT22;30138;20.964;105.830;2022-08-18T21:51:47;26.40;59.90
44435;DHT22;30138;20.964;105.830;2022-08-18T21:57:20;26.40;65.20
44435;DHT22;30138;20.964;105.830;2022-08-18T22:02:28;26.40;59.30
44435;DHT22;30138;20.964;105.830;2022-08-18T22:07:45;26.40;65.20
44435;DHT22;30138;20.964;105.830;2022-08-18T22:12:54;26.40;59.20
44435;DHT22;30138;20.964;105.830;2022-08-18T22:18:33;26.40;65.90
44435;DHT22;30138;20.964;105.830;2022-08-18T22:23:44;26.30;59.80
44435;DHT22;30138;20.964;105.830;2022-08-18T22:29:12;26.40;64.60
44435;DHT22;30138;20.964;105.830;2022-08-18T22:34:27;26.30;59.90
44435;DHT22;30138;20.964;105.830;2022-08-18T22:39:39;26.30;63.20
44435;DHT22;30138;20.964;105.830;2022-08-18T22:44:50;26.30;61.80
44435;DHT22;30138;20.964;105.830;2022-08-18T22:49:57;26.30;62.80
44435;DHT22;30138;20.964;105.830;2022-08-18T22:55:09;26.30;62.90
44435;DHT22;30138;20.964;105.830;2022-08-18T23:00:18;26.30;62.30
44435;DHT22;30138;20.964;105.830;2022-08-18T23:05:25;26.30;62.90
44435;DHT22;30138;20.964;105.830;2022-08-18T23:10:34;26.30;61.90
44435;DHT22;30138;20.964;105.830;2022-08-18T23:15:41;26.30;63.90
44435;DHT22;30138;20.964;105.830;2022-08-18T23:20:50;26.30;61.60
44435;DHT22;30138;20.964;105.830;2022-08-18T23:26:01;26.20;65.00
44435;DHT22;30138;20.964;105.830;2022-08-18T23:31:08;26.20;61.10
44435;DHT22;30138;20.964;105.830;2022-08-18T23:36:15;26.20;65.50
44435;DHT22;30138;20.964;105.830;2022-08-18T23:41:25;26.20;60.80
44435;DHT22;30138;20.964;105.830;2022-08-18T23:46:33;26.20;66.00
44435;DHT22;30138;20.964;105.830;2022-08-18T23:51:43;26.20;60.40
44435;DHT22;30138;20.964;105.830;2022-08-18T23:56:53;26.20;66.50
